sensor_id;sensor_type;location;lat;lon;timestamp;pressure;altitude;pressure_sealevel;temperature;humidity
71976;BME280;68326;52.124;5.424;2024-03-23T00:55:40;101058.19;;;9.93;89.95
71976;BME280;68326;52.124;5.424;2024-03-23T00:58:06;101053.81;;;9.94;89.74
71976;BME280;68326;52.124;5.424;2024-03-23T01:00:32;101055.59;;;9.93;90.14
71976;BME280;68326;52.124;5.424;2024-03-23T01:02:57;101057.97;;;9.98;90.25
71976;BME280;68326;52.124;5.424;2024-03-23T01:05:23;101054.53;;;9.97;89.39
71976;BME280;68326;52.124;5.424;2024-03-23T01:07:49;101057.41;;;9.91;90.13
71976;BME280;68326;52.124;5.424;2024-03-23T01:10:14;101056.78;;;9.86;90.61
71976;BME280;68326;52.124;5.424;2024-03-23T01:12:40;101045.72;;;9.81;90.51
71976;BME280;68326;52.124;5.424;2024-03-23T01:15:06;101042.22;;;9.82;90.26
71976;BME280;68326;52.124;5.424;2024-03-23T01:17:31;101038.66;;;9.85;90.45
71976;BME280;68326;52.124;5.424;2024-03-23T01:19:57;101041.19;;;9.86;90.20
71976;BME280;68326;52.124;5.424;2024-03-23T01:22:22;101035.97;;;9.86;90.28
71976;BME280;68326;52.124;5.424;2024-03-23T01:24:48;101034.94;;;9.90;90.38
71976;BME280;68326;52.124;5.424;2024-03-23T01:27:14;101027.75;;;9.95;90.33
71976;BME280;68326;52.124;5.424;2024-03-23T01:29:40;101024.38;;;9.93;90.56
71976;BME280;68326;52.124;5.424;2024-03-23T01:32:05;101017.50;;;9.92;90.93
71976;BME280;68326;52.124;5.424;2024-03-23T01:34:32;101017.50;;;9.92;90.00
71976;BME280;68326;52.124;5.424;2024-03-23T01:36:58;101014.88;;;9.92;90.31
71976;BME280;68326;52.124;5.424;2024-03-23T01:39:24;101010.41;;;9.96;90.31
71976;BME280;68326;52.124;5.424;2024-03-23T01:41:49;101002.53;;;9.97;90.24
71976;BME280;68326;52.124;5.424;2024-03-23T01:44:15;101002.34;;;10.02;90.49
71976;BME280;68326;52.124;5.424;2024-03-23T01:46:41;100994.75;;;9.97;89.56
71976;BME280;68326;52.124;5.424;2024-03-23T01:49:08;100989.81;;;9.91;89.96
71976;BME280;68326;52.124;5.424;2024-03-23T01:51:34;100991.50;;;9.92;89.57
71976;BME280;68326;52.124;5.424;2024-03-23T01:54:01;100987.28;;;9.90;89.70
71976;BME280;68326;52.124;5.424;2024-03-23T01:56:29;100990.16;;;9.84;89.40
71976;BME280;68326;52.124;5.424;2024-03-23T01:58:55;100982.63;;;9.77;89.29
71976;BME280;68326;52.124;5.424;2024-03-23T02:01:21;100987.97;;;9.74;89.91
71976;BME280;68326;52.124;5.424;2024-03-23T02:03:46;100986.38;;;9.72;89.37
71976;BME280;68326;52.124;5.424;2024-03-23T02:06:12;100983.09;;;9.67;89.86
71976;BME280;68326;52.124;5.424;2024-03-23T02:08:39;100985.91;;;9.62;89.54
71976;BME280;68326;52.124;5.424;2024-03-23T02:11:04;100988.00;;;9.54;89.77
71976;BME280;68326;52.124;5.424;2024-03-23T02:13:30;100984.63;;;9.52;89.60
71976;BME280;68326;52.124;5.424;2024-03-23T02:15:57;100993.47;;;9.48;89.46
71976;BME280;68326;52.124;5.424;2024-03-23T02:18:23;100988.47;;;9.43;89.49
71976;BME280;68326;52.124;5.424;2024-03-23T02:20:48;100983.53;;;9.37;89.77
71976;BME280;68326;52.124;5.424;2024-03-23T02:23:18;100985.97;;;9.42;89.49
71976;BME280;68326;52.124;5.424;2024-03-23T02:25:44;100984.66;;;9.31;89.59
71976;BME280;68326;52.124;5.424;2024-03-23T02:28:10;100980.63;;;9.24;89.53
71976;BME280;68326;52.124;5.424;2024-03-23T02:30:36;100976.34;;;9.23;89.50
71976;BME280;68326;52.124;5.424;2024-03-23T02:33:03;100966.03;;;9.22;90.24
71976;BME280;68326;52.124;5.424;2024-03-23T02:35:28;100963.44;;;9.22;89.84
71976;BME280;68326;52.124;5.424;2024-03-23T02:37:54;100956.56;;;9.21;89.71
71976;BME280;68326;52.124;5.424;2024-03-23T02:40:22;100968.03;;;9.15;90.01
71976;BME280;68326;52.124;5.424;2024-03-23T02:42:48;100962.06;;;9.13;89.63
71976;BME280;68326;52.124;5.424;2024-03-23T02:45:14;100967.53;;;9.07;89.85
71976;BME280;68326;52.124;5.424;2024-03-23T02:47:39;100964.50;;;8.97;89.46
71976;BME280;68326;52.124;5.424;2024-03-23T02:50:05;100962.00;;;8.94;89.31
71976;BME280;68326;52.124;5.424;2024-03-23T02:52:31;100968.13;;;8.93;90.04
71976;BME280;68326;52.124;5.424;2024-03-23T02:54:57;100966.41;;;8.92;89.17
71976;BME280;68326;52.124;5.424;2024-03-23T02:57:23;100970.03;;;8.88;89.18
71976;BME280;68326;52.124;5.424;2024-03-23T02:59:48;100971.84;;;8.86;88.96
71976;BME280;68326;52.124;5.424;2024-03-23T03:02:16;100962.41;;;8.85;89.08
71976;BME280;68326;52.124;5.424;2024-03-23T03:04:42;100962.44;;;8.83;88.86
71976;BME280;68326;52.124;5.424;2024-03-23T03:07:07;100960.78;;;8.82;88.68
71976;BME280;68326;52.124;5.424;2024-03-23T03:09:33;100969.59;;;8.78;88.79
71976;BME280;68326;52.124;5.424;2024-03-23T03:12:01;100967.84;;;8.78;88.34
71976;BME280;68326;52.124;5.424;2024-03-23T03:14:27;100964.47;;;8.76;88.53
71976;BME280;68326;52.124;5.424;2024-03-23T03:16:53;100963.63;;;8.76;88.50
71976;BME280;68326;52.124;5.424;2024-03-23T03:19:19;100968.03;;;8.74;88.17
71976;BME280;68326;52.124;5.424;2024-03-23T03:21:44;100964.59;;;8.73;88.01
71976;BME280;68326;52.124;5.424;2024-03-23T03:24:10;100961.13;;;8.73;88.36
71976;BME280;68326;52.124;5.424;2024-03-23T03:26:36;100961.22;;;8.71;87.41
71976;BME280;68326;52.124;5.424;2024-03-23T03:29:02;100962.09;;;8.70;87.43
71976;BME280;68326;52.124;5.424;2024-03-23T03:31:28;100959.81;;;8.63;87.47
71976;BME280;68326;52.124;5.424;2024-03-23T03:33:53;100957.41;;;8.58;87.07
71976;BME280;68326;52.124;5.424;2024-03-23T03:36:19;100953.38;;;8.51;86.96
71976;BME280;68326;52.124;5.424;2024-03-23T03:38:45;100947.59;;;8.44;87.22
71976;BME280;68326;52.124;5.424;2024-03-23T03:41:10;100949.56;;;8.37;86.81
71976;BME280;68326;52.124;5.424;2024-03-23T03:43:36;100953.25;;;8.32;86.89
71976;BME280;68326;52.124;5.424;2024-03-23T03:46:02;100944.63;;;8.31;87.28
71976;BME280;68326;52.124;5.424;2024-03-23T03:48:28;100943.00;;;8.29;87.01
71976;BME280;68326;52.124;5.424;2024-03-23T03:50:54;100937.91;;;8.26;86.33
71976;BME280;68326;52.124;5.424;2024-03-23T03:53:19;100936.28;;;8.23;86.99
71976;BME280;68326;52.124;5.424;2024-03-23T03:55:45;100941.47;;;8.23;86.64
71976;BME280;68326;52.124;5.424;2024-03-23T03:58:11;100938.09;;;8.21;86.66
71976;BME280;68326;52.124;5.424;2024-03-23T04:00:36;100940.03;;;8.16;86.79
71976;BME280;68326;52.124;5.424;2024-03-23T04:03:02;100940.19;;;8.11;86.83
71976;BME280;68326;52.124;5.424;2024-03-23T04:05:28;100933.34;;;8.10;86.94
71976;BME280;68326;52.124;5.424;2024-03-23T04:07:53;100933.44;;;8.07;86.82
71976;BME280;68326;52.124;5.424;2024-03-23T04:10:19;100932.72;;;8.04;86.86
71976;BME280;68326;52.124;5.424;2024-03-23T04:12:45;100932.78;;;8.02;86.80
71976;BME280;68326;52.124;5.424;2024-03-23T04:15:11;100929.47;;;7.99;86.05
71976;BME280;68326;52.124;5.424;2024-03-23T04:17:37;100928.66;;;7.96;86.28
71976;BME280;68326;52.124;5.424;2024-03-23T04:20:03;100919.22;;;7.95;86.57
71976;BME280;68326;52.124;5.424;2024-03-23T04:22:35;100914.09;;;7.94;86.11
71976;BME280;68326;52.124;5.424;2024-03-23T04:25:00;100916.91;;;7.88;86.20
71976;BME280;68326;52.124;5.424;2024-03-23T04:27:35;100917.00;;;7.86;86.23
71976;BME280;68326;52.124;5.424;2024-03-23T04:30:01;100921.38;;;7.84;86.13
71976;BME280;68326;52.124;5.424;2024-03-23T04:32:28;100921.50;;;7.81;85.71
71976;BME280;68326;52.124;5.424;2024-03-23T04:34:54;100919.06;;;7.76;85.87
71976;BME280;68326;52.124;5.424;2024-03-23T04:37:20;100918.28;;;7.74;86.09
71976;BME280;68326;52.124;5.424;2024-03-23T04:39:46;100910.66;;;7.71;86.05
71976;BME280;68326;52.124;5.424;2024-03-23T04:42:14;100914.97;;;7.71;85.68
71976;BME280;68326;52.124;5.424;2024-03-23T04:44:40;100922.72;;;7.71;85.69
71976;BME280;68326;52.124;5.424;2024-03-23T04:47:06;100915.91;;;7.68;85.60
71976;BME280;68326;52.124;5.424;2024-03-23T04:49:31;100918.63;;;7.65;86.28
71976;BME280;68326;52.124;5.424;2024-03-23T04:51:57;100932.38;;;7.67;85.97
71976;BME280;68326;52.124;5.424;2024-03-23T04:54:22;100922.94;;;7.65;86.10
71976;BME280;68326;52.124;5.424;2024-03-23T04:56:48;100916.06;;;7.65;85.72
71976;BME280;68326;52.124;5.424;2024-03-23T04:59:14;100920.53;;;7.60;85.89
71976;BME280;68326;52.124;5.424;2024-03-23T05:01:40;100917.25;;;7.57;85.52
71976;BME280;68326;52.124;5.424;2024-03-23T05:04:07;100917.56;;;7.47;85.94
71976;BME280;68326;52.124;5.424;2024-03-23T05:06:33;100915.97;;;7.43;86.33
71976;BME280;68326;52.124;5.424;2024-03-23T05:09:00;100914.28;;;7.42;85.89
71976;BME280;68326;52.124;5.424;2024-03-23T05:11:27;100917.69;;;7.44;85.66
71976;BME280;68326;52.124;5.424;2024-03-23T05:13:52;100914.16;;;7.45;85.64
71976;BME280;68326;52.124;5.424;2024-03-23T05:16:18;100914.22;;;7.44;85.12
71976;BME280;68326;52.124;5.424;2024-03-23T05:18:43;100914.16;;;7.45;85.13
71976;BME280;68326;52.124;5.424;2024-03-23T05:21:09;100918.38;;;7.48;85.38
71976;BME280;68326;52.124;5.424;2024-03-23T05:23:34;100917.59;;;7.46;84.96
71976;BME280;68326;52.124;5.424;2024-03-23T05:26:00;100919.47;;;7.42;84.91
71976;BME280;68326;52.124;5.424;2024-03-23T05:28:26;100924.53;;;7.45;84.78
71976;BME280;68326;52.124;5.424;2024-03-23T05:30:54;100921.16;;;7.43;84.49
71976;BME280;68326;52.124;5.424;2024-03-23T05:33:20;100928.25;;;7.38;84.52
71976;BME280;68326;52.124;5.424;2024-03-23T05:35:46;100924.91;;;7.34;84.53
71976;BME280;68326;52.124;5.424;2024-03-23T05:38:15;100928.34;;;7.35;84.52
71976;BME280;68326;52.124;5.424;2024-03-23T05:40:41;100931.22;;;7.27;84.48
71976;BME280;68326;52.124;5.424;2024-03-23T05:43:07;100925.13;;;7.28;84.82
71976;BME280;68326;52.124;5.424;2024-03-23T05:45:32;100923.28;;;7.32;84.85
71976;BME280;68326;52.124;5.424;2024-03-23T05:47:58;100925.84;;;7.33;84.14
71976;BME280;68326;52.124;5.424;2024-03-23T05:50:24;100919.91;;;7.30;84.60
71976;BME280;68326;52.124;5.424;2024-03-23T05:52:50;100923.28;;;7.32;84.45
71976;BME280;68326;52.124;5.424;2024-03-23T05:55:15;100916.34;;;7.32;84.26
71976;BME280;68326;52.124;5.424;2024-03-23T05:57:41;100920.88;;;7.27;84.60
71976;BME280;68326;52.124;5.424;2024-03-23T06:00:07;100912.09;;;7.31;84.38
71976;BME280;68326;52.124;5.424;2024-03-23T06:02:43;100909.34;;;7.36;84.68
71976;BME280;68326;52.124;5.424;2024-03-23T06:05:12;100914.38;;;7.39;84.35
71976;BME280;68326;52.124;5.424;2024-03-23T06:07:38;100911.94;;;7.36;83.90
71976;BME280;68326;52.124;5.424;2024-03-23T06:10:05;100904.94;;;7.38;84.00
71976;BME280;68326;52.124;5.424;2024-03-23T06:12:31;100919.47;;;7.42;83.65
71976;BME280;68326;52.124;5.424;2024-03-23T06:14:57;100912.50;;;7.44;84.57
71976;BME280;68326;52.124;5.424;2024-03-23T06:17:22;100921.09;;;7.45;83.96
71976;BME280;68326;52.124;5.424;2024-03-23T06:19:48;100911.53;;;7.47;83.40
71976;BME280;68326;52.124;5.424;2024-03-23T06:22:14;100920.09;;;7.49;83.36
71976;BME280;68326;52.124;5.424;2024-03-23T06:24:40;100917.28;;;7.55;83.44
71976;BME280;68326;52.124;5.424;2024-03-23T06:27:05;100916.28;;;7.59;83.39
71976;BME280;68326;52.124;5.424;2024-03-23T06:29:31;100906.63;;;7.63;83.38
71976;BME280;68326;52.124;5.424;2024-03-23T06:31:57;100908.28;;;7.65;83.17
71976;BME280;68326;52.124;5.424;2024-03-23T06:34:23;100901.22;;;7.69;82.68
71976;BME280;68326;52.124;5.424;2024-03-23T06:36:49;100905.16;;;7.79;82.62
71976;BME280;68326;52.124;5.424;2024-03-23T06:39:16;100903.31;;;7.83;81.93
71976;BME280;68326;52.124;5.424;2024-03-23T06:42:01;100900.72;;;7.83;82.20
71976;BME280;68326;52.124;5.424;2024-03-23T06:44:27;100892.94;;;7.83;82.31
71976;BME280;68326;52.124;5.424;2024-03-23T06:46:53;100902.09;;;7.91;82.18
71976;BME280;68326;52.124;5.424;2024-03-23T06:49:18;100894.69;;;8.04;81.95
71976;BME280;68326;52.124;5.424;2024-03-23T06:51:45;100894.13;;;8.18;82.02
71976;BME280;68326;52.124;5.424;2024-03-23T06:54:10;100890.28;;;8.28;81.26
71976;BME280;68326;52.124;5.424;2024-03-23T06:56:36;100895.47;;;8.28;81.25
71976;BME280;68326;52.124;5.424;2024-03-23T06:59:01;100902.13;;;8.35;81.60
71976;BME280;68326;52.124;5.424;2024-03-23T07:01:27;100908.09;;;8.37;80.91
71976;BME280;68326;52.124;5.424;2024-03-23T07:03:54;100904.91;;;8.53;81.78
71976;BME280;68326;52.124;5.424;2024-03-23T07:06:20;100908.03;;;8.61;80.48
71976;BME280;68326;52.124;5.424;2024-03-23T07:08:46;100909.59;;;8.65;80.89
71976;BME280;68326;52.124;5.424;2024-03-23T07:11:11;100906.22;;;8.63;79.81
71976;BME280;68326;52.124;5.424;2024-03-23T07:13:37;100895.44;;;8.72;80.30
71976;BME280;68326;52.124;5.424;2024-03-23T07:16:02;100906.19;;;8.84;80.84
71976;BME280;68326;52.124;5.424;2024-03-23T07:18:28;100900.69;;;8.91;79.39
71976;BME280;68326;52.124;5.424;2024-03-23T07:20:54;100902.56;;;9.08;79.19
71976;BME280;68326;52.124;5.424;2024-03-23T07:23:22;100897.44;;;9.07;79.03
71976;BME280;68326;52.124;5.424;2024-03-23T07:26:04;100895.63;;;9.09;79.18
71976;BME280;68326;52.124;5.424;2024-03-23T07:28:30;100903.97;;;9.15;77.91
71976;BME280;68326;52.124;5.424;2024-03-23T07:31:07;100901.50;;;9.33;78.68
71976;BME280;68326;52.124;5.424;2024-03-23T07:33:45;100913.88;;;9.47;78.65
71976;BME280;68326;52.124;5.424;2024-03-23T07:36:11;100910.06;;;9.54;77.29
71976;BME280;68326;52.124;5.424;2024-03-23T07:38:37;100906.84;;;9.49;77.52
71976;BME280;68326;52.124;5.424;2024-03-23T07:41:07;100905.31;;;9.45;77.84
71976;BME280;68326;52.124;5.424;2024-03-23T07:43:33;100906.31;;;9.61;78.30
71976;BME280;68326;52.124;5.424;2024-03-23T07:45:59;100897.09;;;9.73;77.45
71976;BME280;68326;52.124;5.424;2024-03-23T07:48:26;100902.56;;;9.67;76.67
71976;BME280;68326;52.124;5.424;2024-03-23T07:51:15;100901.88;;;9.82;76.37
71976;BME280;68326;52.124;5.424;2024-03-23T07:53:43;100909.81;;;9.79;75.89
71976;BME280;68326;52.124;5.424;2024-03-23T07:56:09;100910.56;;;10.00;75.54
71976;BME280;68326;52.124;5.424;2024-03-23T07:58:38;100907.69;;;10.06;74.72
71976;BME280;68326;52.124;5.424;2024-03-23T08:01:09;100906.34;;;9.97;73.55
71976;BME280;68326;52.124;5.424;2024-03-23T08:03:36;100904.47;;;10.01;73.78
71976;BME280;68326;52.124;5.424;2024-03-23T08:08:34;100900.38;;;9.95;72.17
71976;BME280;68326;52.124;5.424;2024-03-23T08:11:00;100898.06;;;9.89;72.24
71976;BME280;68326;52.124;5.424;2024-03-23T08:13:26;100898.75;;;10.12;72.18
71976;BME280;68326;52.124;5.424;2024-03-23T08:15:52;100893.31;;;10.35;71.82
71976;BME280;68326;52.124;5.424;2024-03-23T08:18:17;100899.59;;;10.31;70.72
71976;BME280;68326;52.124;5.424;2024-03-23T08:20:43;100901.44;;;10.28;70.62
71976;BME280;68326;52.124;5.424;2024-03-23T08:23:08;100899.25;;;10.20;69.78
71976;BME280;68326;52.124;5.424;2024-03-23T08:25:35;100895.03;;;9.98;68.53
71976;BME280;68326;52.124;5.424;2024-03-23T08:28:00;100900.88;;;10.04;70.05
71976;BME280;68326;52.124;5.424;2024-03-23T08:30:26;100904.84;;;10.11;70.25
71976;BME280;68326;52.124;5.424;2024-03-23T08:32:52;100906.63;;;10.10;70.66
71976;BME280;68326;52.124;5.424;2024-03-23T08:35:17;100903.44;;;10.42;69.21
71976;BME280;68326;52.124;5.424;2024-03-23T08:37:43;100893.25;;;10.54;68.40
71976;BME280;68326;52.124;5.424;2024-03-23T08:40:09;100906.47;;;10.32;67.89
71976;BME280;68326;52.124;5.424;2024-03-23T08:42:35;100899.28;;;10.37;66.76
71976;BME280;68326;52.124;5.424;2024-03-23T08:45:00;100891.72;;;10.50;67.22
71976;BME280;68326;52.124;5.424;2024-03-23T08:47:26;100907.19;;;10.88;67.21
71976;BME280;68326;52.124;5.424;2024-03-23T08:49:51;100905.56;;;10.86;65.91
71976;BME280;68326;52.124;5.424;2024-03-23T08:52:18;100893.94;;;10.93;65.85
71976;BME280;68326;52.124;5.424;2024-03-23T08:54:43;100891.34;;;10.93;66.57
71976;BME280;68326;52.124;5.424;2024-03-23T08:57:09;100904.72;;;11.36;67.03
71976;BME280;68326;52.124;5.424;2024-03-23T08:59:34;100893.34;;;11.54;64.63
71976;BME280;68326;52.124;5.424;2024-03-23T09:02:00;100890.59;;;11.89;64.46
71976;BME280;68326;52.124;5.424;2024-03-23T09:04:26;100888.69;;;12.39;63.23
71976;BME280;68326;52.124;5.424;2024-03-23T09:06:51;100880.88;;;12.53;63.75
71976;BME280;68326;52.124;5.424;2024-03-23T09:09:17;100879.34;;;12.65;58.29
71976;BME280;68326;52.124;5.424;2024-03-23T09:11:43;100889.78;;;12.65;59.32
71976;BME280;68326;52.124;5.424;2024-03-23T09:14:08;100879.28;;;12.81;58.87
71976;BME280;68326;52.124;5.424;2024-03-23T09:16:34;100889.44;;;12.85;57.65
71976;BME280;68326;52.124;5.424;2024-03-23T09:19:01;100893.38;;;12.48;59.47
71976;BME280;68326;52.124;5.424;2024-03-23T09:21:26;100891.94;;;11.96;61.03
71976;BME280;68326;52.124;5.424;2024-03-23T09:23:52;100886.75;;;11.31;64.12
71976;BME280;68326;52.124;5.424;2024-03-23T09:26:17;100891.47;;;11.07;66.23
71976;BME280;68326;52.124;5.424;2024-03-23T09:28:43;100893.84;;;10.77;65.43
71976;BME280;68326;52.124;5.424;2024-03-23T09:31:09;100886.78;;;10.27;66.91
71976;BME280;68326;52.124;5.424;2024-03-23T09:33:39;100886.84;;;9.89;67.70
71976;BME280;68326;52.124;5.424;2024-03-23T09:36:06;100892.59;;;9.76;68.31
71976;BME280;68326;52.124;5.424;2024-03-23T09:38:32;100885.03;;;9.72;70.05
71976;BME280;68326;52.124;5.424;2024-03-23T09:40:58;100893.53;;;9.75;70.61
71976;BME280;68326;52.124;5.424;2024-03-23T09:43:25;100885.06;;;9.89;69.66
71976;BME280;68326;52.124;5.424;2024-03-23T09:45:51;100891.56;;;9.80;69.86
71976;BME280;68326;52.124;5.424;2024-03-23T09:48:17;100905.03;;;9.51;70.54
71976;BME280;68326;52.124;5.424;2024-03-23T09:50:44;100899.19;;;9.27;70.59
71976;BME280;68326;52.124;5.424;2024-03-23T09:53:13;100891.94;;;9.14;69.85
71976;BME280;68326;52.124;5.424;2024-03-23T09:55:41;100888.81;;;9.06;70.25
71976;BME280;68326;52.124;5.424;2024-03-23T09:58:07;100881.66;;;9.11;69.83
71976;BME280;68326;52.124;5.424;2024-03-23T10:00:34;100882.75;;;9.26;72.32
71976;BME280;68326;52.124;5.424;2024-03-23T10:03:00;100882.97;;;9.97;71.03
71976;BME280;68326;52.124;5.424;2024-03-23T10:05:30;100876.72;;;10.55;69.43
71976;BME280;68326;52.124;5.424;2024-03-23T10:10:40;100865.41;;;11.40;66.73
71976;BME280;68326;52.124;5.424;2024-03-23T10:13:05;100864.16;;;11.63;65.65
71976;BME280;68326;52.124;5.424;2024-03-23T10:15:33;100856.94;;;12.00;64.71
71976;BME280;68326;52.124;5.424;2024-03-23T10:18:18;100863.66;;;12.20;64.91
71976;BME280;68326;52.124;5.424;2024-03-23T10:20:51;100863.31;;;12.41;61.78
71976;BME280;68326;52.124;5.424;2024-03-23T10:23:17;100861.59;;;12.26;61.34
71976;BME280;68326;52.124;5.424;2024-03-23T10:25:43;100872.00;;;11.95;61.14
71976;BME280;68326;52.124;5.424;2024-03-23T10:28:08;100872.50;;;11.21;61.20
71976;BME280;68326;52.124;5.424;2024-03-23T10:30:35;100866.16;;;11.42;61.62
71976;BME280;68326;52.124;5.424;2024-03-23T10:33:10;100868.94;;;11.87;61.46
71976;BME280;68326;52.124;5.424;2024-03-23T10:35:37;100871.56;;;11.87;60.68
71976;BME280;68326;52.124;5.424;2024-03-23T10:38:07;100862.88;;;12.18;61.20
71976;BME280;68326;52.124;5.424;2024-03-23T10:40:36;100863.91;;;12.46;57.30
71976;BME280;68326;52.124;5.424;2024-03-23T10:43:06;100862.59;;;12.39;57.24
71976;BME280;68326;52.124;5.424;2024-03-23T10:45:32;100864.88;;;12.59;56.51
71976;BME280;68326;52.124;5.424;2024-03-23T10:47:58;100867.59;;;12.72;58.46
71976;BME280;68326;52.124;5.424;2024-03-23T10:50:23;100864.56;;;12.19;56.73
71976;BME280;68326;52.124;5.424;2024-03-23T10:52:51;100865.50;;;11.71;58.54
71976;BME280;68326;52.124;5.424;2024-03-23T10:55:19;100893.66;;;11.15;60.10
71976;BME280;68326;52.124;5.424;2024-03-23T10:57:53;100886.84;;;10.25;63.53
71976;BME280;68326;52.124;5.424;2024-03-23T11:00:19;100890.56;;;9.83;65.99
71976;BME280;68326;52.124;5.424;2024-03-23T11:02:48;100883.69;;;9.63;66.08
71976;BME280;68326;52.124;5.424;2024-03-23T11:07:52;100880.22;;;9.82;67.05
71976;BME280;68326;52.124;5.424;2024-03-23T11:10:31;100870.97;;;10.66;67.03
71976;BME280;68326;52.124;5.424;2024-03-23T11:12:58;100876.56;;;11.27;64.90
71976;BME280;68326;52.124;5.424;2024-03-23T11:15:43;100867.19;;;11.72;62.42
71976;BME280;68326;52.124;5.424;2024-03-23T11:18:09;100857.03;;;11.99;62.38
71976;BME280;68326;52.124;5.424;2024-03-23T11:20:35;100858.34;;;12.52;63.50
71976;BME280;68326;52.124;5.424;2024-03-23T11:23:01;100859.88;;;12.40;61.01
71976;BME280;68326;52.124;5.424;2024-03-23T11:25:29;100852.06;;;11.62;61.29
71976;BME280;68326;52.124;5.424;2024-03-23T11:28:09;100867.41;;;11.35;62.61
71976;BME280;68326;52.124;5.424;2024-03-23T11:30:35;100866.34;;;11.06;63.72
71976;BME280;68326;52.124;5.424;2024-03-23T11:33:03;100849.84;;;11.39;61.67
71976;BME280;68326;52.124;5.424;2024-03-23T11:35:34;100858.28;;;12.08;61.07
71976;BME280;68326;52.124;5.424;2024-03-23T11:38:16;100852.63;;;12.46;60.71
71976;BME280;68326;52.124;5.424;2024-03-23T11:40:46;100847.03;;;12.37;59.78
71976;BME280;68326;52.124;5.424;2024-03-23T11:43:17;100839.66;;;12.44;56.80
71976;BME280;68326;52.124;5.424;2024-03-23T11:45:51;100835.91;;;12.34;58.19
71976;BME280;68326;52.124;5.424;2024-03-23T11:48:22;100843.69;;;12.50;57.11
71976;BME280;68326;52.124;5.424;2024-03-23T11:50:50;100834.59;;;12.71;55.63
71976;BME280;68326;52.124;5.424;2024-03-23T11:53:17;100839.66;;;13.03;54.87
71976;BME280;68326;52.124;5.424;2024-03-23T11:55:50;100827.63;;;13.29;53.78
71976;BME280;68326;52.124;5.424;2024-03-23T11:58:18;100824.69;;;12.62;53.86
71976;BME280;68326;52.124;5.424;2024-03-23T12:00:58;100834.06;;;11.74;55.11
71976;BME280;68326;52.124;5.424;2024-03-23T12:03:25;100831.78;;;11.36;55.17
71976;BME280;68326;52.124;5.424;2024-03-23T12:05:52;100835.06;;;11.39;57.92
71976;BME280;68326;52.124;5.424;2024-03-23T12:08:31;100823.69;;;12.20;56.92
71976;BME280;68326;52.124;5.424;2024-03-23T12:11:04;100838.06;;;12.11;54.07
71976;BME280;68326;52.124;5.424;2024-03-23T12:13:30;100831.88;;;11.66;55.88
71976;BME280;68326;52.124;5.424;2024-03-23T12:18:34;100834.66;;;10.98;56.79
71976;BME280;68326;52.124;5.424;2024-03-23T12:21:00;100825.97;;;10.64;58.47
71976;BME280;68326;52.124;5.424;2024-03-23T12:23:25;100815.38;;;11.18;58.07
71976;BME280;68326;52.124;5.424;2024-03-23T12:25:51;100809.75;;;11.89;55.24
71976;BME280;68326;52.124;5.424;2024-03-23T12:28:16;100807.59;;;12.42;55.45
71976;BME280;68326;52.124;5.424;2024-03-23T12:30:42;100798.22;;;12.68;54.58
71976;BME280;68326;52.124;5.424;2024-03-23T12:33:07;100806.09;;;12.38;53.15
71976;BME280;68326;52.124;5.424;2024-03-23T12:35:33;100804.59;;;12.03;55.11
71976;BME280;68326;52.124;5.424;2024-03-23T12:37:59;100799.66;;;11.99;56.72
71976;BME280;68326;52.124;5.424;2024-03-23T12:40:25;100802.00;;;12.34;54.83
71976;BME280;68326;52.124;5.424;2024-03-23T12:42:50;100807.19;;;11.88;54.07
71976;BME280;68326;52.124;5.424;2024-03-23T12:45:16;100802.44;;;11.32;54.34
71976;BME280;68326;52.124;5.424;2024-03-23T12:47:42;100805.06;;;11.48;55.30
71976;BME280;68326;52.124;5.424;2024-03-23T12:50:07;100805.72;;;11.68;53.23
71976;BME280;68326;52.124;5.424;2024-03-23T12:52:35;100807.91;;;11.43;53.18
71976;BME280;68326;52.124;5.424;2024-03-23T12:55:01;100806.03;;;11.14;53.54
71976;BME280;68326;52.124;5.424;2024-03-23T12:57:26;100807.22;;;11.24;55.90
71976;BME280;68326;52.124;5.424;2024-03-23T12:59:52;100811.53;;;11.89;55.33
71976;BME280;68326;52.124;5.424;2024-03-23T13:02:22;100802.56;;;12.09;54.45
71976;BME280;68326;52.124;5.424;2024-03-23T13:04:51;100805.47;;;12.49;54.80
71976;BME280;68326;52.124;5.424;2024-03-23T13:07:18;100796.47;;;12.97;53.15
71976;BME280;68326;52.124;5.424;2024-03-23T13:09:44;100810.44;;;12.68;52.68
71976;BME280;68326;52.124;5.424;2024-03-23T13:12:10;100800.16;;;11.90;53.13
71976;BME280;68326;52.124;5.424;2024-03-23T13:14:38;100806.66;;;11.35;53.32
71976;BME280;68326;52.124;5.424;2024-03-23T13:17:04;100803.59;;;11.11;54.85
71976;BME280;68326;52.124;5.424;2024-03-23T13:19:30;100799.41;;;11.72;54.81
71976;BME280;68326;52.124;5.424;2024-03-23T13:21:57;100797.47;;;12.07;51.46
71976;BME280;68326;52.124;5.424;2024-03-23T13:24:24;100788.06;;;11.57;51.91
71976;BME280;68326;52.124;5.424;2024-03-23T13:26:50;100824.50;;;11.09;53.50
71976;BME280;68326;52.124;5.424;2024-03-23T13:29:17;100848.69;;;10.43;55.38
71976;BME280;68326;52.124;5.424;2024-03-23T13:31:42;100858.03;;;9.74;56.99
71976;BME280;68326;52.124;5.424;2024-03-23T13:34:08;100836.56;;;9.52;57.73
71976;BME280;68326;52.124;5.424;2024-03-23T13:36:33;100822.69;;;9.34;59.36
71976;BME280;68326;52.124;5.424;2024-03-23T13:38:59;100824.34;;;9.35;59.53
71976;BME280;68326;52.124;5.424;2024-03-23T13:41:24;100822.72;;;9.70;58.18
71976;BME280;68326;52.124;5.424;2024-03-23T13:43:50;100812.53;;;10.02;58.68
71976;BME280;68326;52.124;5.424;2024-03-23T13:46:15;100814.06;;;10.43;56.94
71976;BME280;68326;52.124;5.424;2024-03-23T13:48:41;100799.53;;;10.89;56.93
71976;BME280;68326;52.124;5.424;2024-03-23T13:51:07;100797.66;;;11.25;55.00
71976;BME280;68326;52.124;5.424;2024-03-23T13:53:33;100800.41;;;11.06;55.02
71976;BME280;68326;52.124;5.424;2024-03-23T13:55:59;100803.63;;;10.77;55.53
71976;BME280;68326;52.124;5.424;2024-03-23T13:58:24;100812.72;;;10.69;56.23